Time;durP1;ratioP1;P1;durP2;ratioP2;P2;SDS_P1;SDS_P2;PMS_P1;PMS_P2;Temp;Humidity;BMP_temperature;BMP_pressure;BME280_temperature;BME280_humidity;BME280_pressure;Samples;Min_cycle;Max_cycle;Signal;HPM_P1;HPM_P2
2023/11/15 00:00:17;;;;;;;60.00;37.05;;;8.50;99.90;;;;;;5031401;28;20050;-68
2023/11/15 00:02:45;;;;;;;64.55;38.40;;;8.50;99.90;;;;;;5034854;28;20040;-70
2023/11/15 00:05:12;;;;;;;59.40;37.38;;;8.70;99.90;;;;;;5032316;28;20041;-71
2023/11/15 00:07:40;;;;;;;56.72;33.80;;;8.80;99.90;;;;;;5031456;28;20076;-71
2023/11/15 00:10:08;;;;;;;51.72;33.03;;;8.50;99.90;;;;;;5031951;28;20045;-71
2023/11/15 00:12:35;;;;;;;56.50;34.05;;;8.30;99.90;;;;;;5012426;28;20049;-71
2023/11/15 00:15:03;;;;;;;51.08;31.13;;;8.40;99.90;;;;;;5027096;28;20137;-71
2023/11/15 00:17:31;;;;;;;53.95;34.97;;;8.60;99.90;;;;;;5034636;28;20033;-71
2023/11/15 00:20:03;;;;;;;52.38;33.83;;;8.60;99.90;;;;;;5026859;28;20120;-71
2023/11/15 00:22:31;;;;;;;60.78;36.92;;;8.60;99.90;;;;;;5028193;28;20128;-72
2023/11/15 00:24:59;;;;;;;55.40;34.67;;;8.50;99.90;;;;;;5027447;28;20121;-71
2023/11/15 00:27:26;;;;;;;64.15;41.90;;;8.50;99.90;;;;;;5029877;28;20041;-71
2023/11/15 00:29:54;;;;;;;77.03;45.78;;;8.60;99.90;;;;;;5010431;28;20059;-69
2023/11/15 00:32:22;;;;;;;59.50;39.15;;;8.60;99.90;;;;;;5027935;28;20045;-70
2023/11/15 00:34:49;;;;;;;61.83;39.33;;;8.50;99.90;;;;;;5027793;28;20041;-70
2023/11/15 00:37:17;;;;;;;62.05;39.72;;;8.30;99.90;;;;;;5026912;28;20044;-70
2023/11/15 00:39:44;;;;;;;66.88;41.80;;;8.30;99.90;;;;;;5030252;28;20038;-71
2023/11/15 00:42:12;;;;;;;68.20;41.50;;;8.30;99.90;;;;;;5010455;28;20061;-71
2023/11/15 00:44:39;;;;;;;64.20;41.15;;;8.20;99.90;;;;;;5033153;28;20030;-71
2023/11/15 00:47:07;;;;;;;66.63;43.28;;;8.30;99.90;;;;;;5031708;28;20045;-70
2023/11/15 00:49:37;;;;;;;65.82;42.60;;;8.20;99.90;;;;;;5028535;28;20033;-71
2023/11/15 00:52:05;;;;;;;60.60;39.90;;;8.30;99.90;;;;;;5029119;28;20084;-70
2023/11/15 00:54:32;;;;;;;66.13;42.40;;;8.20;99.90;;;;;;5011104;28;20052;-71
2023/11/15 00:57:00;;;;;;;70.50;41.47;;;8.20;99.90;;;;;;5018940;28;20041;-71
2023/11/15 00:59:36;;;;;;;70.88;42.55;;;8.10;99.90;;;;;;5029788;28;20042;-72
2023/11/15 01:02:05;;;;;;;55.75;38.80;;;8.00;99.90;;;;;;5025562;28;20048;-72
2023/11/15 01:04:32;;;;;;;53.13;36.17;;;8.10;99.90;;;;;;5024319;28;20033;-72
2023/11/15 01:07:00;;;;;;;47.10;31.70;;;8.20;99.90;;;;;;5004811;28;20474;-72
2023/11/15 01:09:29;;;;;;;62.30;36.30;;;8.20;99.90;;;;;;5028494;28;20393;-71
2023/11/15 01:11:56;;;;;;;56.22;35.85;;;8.00;99.90;;;;;;5023119;28;20099;-70
2023/11/15 01:14:23;;;;;;;58.35;35.45;;;8.10;99.90;;;;;;5028235;28;20047;-70
2023/11/15 01:16:52;;;;;;;52.65;35.17;;;8.20;99.90;;;;;;5030979;28;20043;-69
2023/11/15 01:22:12;;;;;;;61.70;38.38;;;8.00;99.90;;;;;;5027453;28;20060;-70
2023/11/15 01:24:41;;;;;;;66.82;39.47;;;8.00;99.90;;;;;;5009060;28;20520;-70
2023/11/15 01:27:09;;;;;;;59.10;39.33;;;7.80;99.90;;;;;;5027956;28;20396;-70
2023/11/15 01:29:36;;;;;;;58.70;36.20;;;7.80;99.90;;;;;;5027743;28;20049;-70
2023/11/15 01:32:03;;;;;;;57.38;34.47;;;7.80;99.90;;;;;;5012032;28;20045;-69
2023/11/15 01:34:31;;;;;;;54.78;35.30;;;7.90;99.90;;;;;;5027819;28;20048;-70
2023/11/15 01:36:59;;;;;;;59.30;36.53;;;8.00;99.90;;;;;;5029289;28;20098;-68
2023/11/15 01:39:26;;;;;;;56.55;34.15;;;8.10;99.90;;;;;;5029199;28;20429;-69
2023/11/15 01:41:56;;;;;;;55.95;35.47;;;8.10;99.90;;;;;;5029461;28;20046;-71
2023/11/15 01:44:24;;;;;;;56.67;32.55;;;8.10;99.90;;;;;;5029310;28;20374;-70
2023/11/15 01:46:53;;;;;;;46.58;30.88;;;8.00;99.90;;;;;;5029570;28;20042;-74
2023/11/15 01:49:21;;;;;;;43.05;30.45;;;8.00;99.90;;;;;;5024815;28;20496;-74
2023/11/15 01:51:50;;;;;;;43.67;29.98;;;8.10;99.90;;;;;;5029275;28;20049;-73
2023/11/15 01:54:20;;;;;;;41.00;29.30;;;8.30;99.90;;;;;;5026488;28;20444;-73
2023/11/15 01:56:47;;;;;;;47.22;27.48;;;8.30;99.90;;;;;;5010284;28;20183;-73
2023/11/15 01:59:15;;;;;;;42.30;27.77;;;8.40;99.90;;;;;;5027736;28;20038;-74
2023/11/15 02:01:43;;;;;;;45.65;26.48;;;8.20;99.90;;;;;;5029432;28;20045;-72
2023/11/15 02:04:10;;;;;;;45.17;28.33;;;8.10;99.90;;;;;;5025080;28;20128;-71
2023/11/15 02:06:38;;;;;;;44.58;27.40;;;8.00;99.90;;;;;;5029001;28;20041;-74
2023/11/15 02:09:05;;;;;;;40.10;27.42;;;7.90;99.90;;;;;;5029530;28;20053;-73
2023/11/15 02:11:33;;;;;;;40.72;26.92;;;8.10;99.90;;;;;;5022405;28;20148;-74
2023/11/15 02:14:00;;;;;;;40.28;27.88;;;8.30;99.90;;;;;;5021576;28;20038;-73
2023/11/15 02:16:28;;;;;;;39.42;26.02;;;8.20;99.90;;;;;;5025260;28;20045;-73
2023/11/15 02:18:56;;;;;;;37.88;23.75;;;7.80;99.90;;;;;;5025406;28;20052;-74
2023/11/15 02:21:24;;;;;;;43.25;26.15;;;7.80;99.90;;;;;;5009842;28;20046;-72
2023/11/15 02:23:51;;;;;;;41.97;25.42;;;7.70;99.90;;;;;;5029371;28;20069;-71
2023/11/15 02:26:19;;;;;;;43.25;25.98;;;7.90;99.90;;;;;;5011217;28;20046;-71
2023/11/15 02:28:47;;;;;;;45.60;27.85;;;7.70;99.90;;;;;;5029370;28;20069;-69
2023/11/15 02:31:14;;;;;;;46.05;29.13;;;7.30;99.90;;;;;;5028425;28;20401;-69
2023/11/15 02:33:44;;;;;;;44.45;28.73;;;7.60;99.90;;;;;;5026562;28;20427;-71
2023/11/15 02:36:12;;;;;;;52.05;28.77;;;7.80;99.90;;;;;;5028280;28;20113;-72
2023/11/15 02:38:40;;;;;;;39.20;25.13;;;7.90;99.90;;;;;;5032203;28;20056;-71
2023/11/15 02:41:08;;;;;;;41.08;25.70;;;7.90;99.90;;;;;;5029138;28;20033;-71
2023/11/15 02:43:36;;;;;;;51.75;27.17;;;7.80;99.90;;;;;;5031929;28;20084;-72
2023/11/15 02:46:03;;;;;;;56.42;28.55;;;7.40;99.90;;;;;;5014918;28;20559;-71
2023/11/15 02:48:30;;;;;;;61.10;30.05;;;7.40;99.90;;;;;;5027851;28;20861;-72
2023/11/15 02:50:58;;;;;;;52.28;29.85;;;7.30;99.90;;;;;;5029755;28;20042;-71
2023/11/15 02:53:25;;;;;;;49.65;28.33;;;7.40;99.90;;;;;;5031496;28;20419;-72
2023/11/15 02:55:53;;;;;;;47.60;27.63;;;7.60;99.90;;;;;;5035020;28;20076;-70
2023/11/15 02:58:20;;;;;;;47.00;26.73;;;7.80;99.90;;;;;;5034458;28;20041;-72
2023/11/15 03:00:47;;;;;;;51.50;26.50;;;7.90;99.90;;;;;;5033605;28;20036;-72
2023/11/15 03:03:14;;;;;;;41.92;24.58;;;8.00;99.90;;;;;;5037349;28;20412;-72
2023/11/15 03:05:42;;;;;;;43.60;22.92;;;8.10;99.90;;;;;;5036000;28;20033;-71
2023/11/15 03:08:09;;;;;;;38.38;22.98;;;8.10;99.90;;;;;;5034445;28;20046;-72
2023/11/15 03:10:37;;;;;;;39.47;23.15;;;8.30;99.90;;;;;;5036183;28;20045;-72
2023/11/15 03:13:04;;;;;;;38.28;22.98;;;8.20;99.90;;;;;;5029115;28;20396;-71
2023/11/15 03:15:32;;;;;;;38.03;22.95;;;8.20;99.90;;;;;;5036987;28;20060;-72
2023/11/15 03:17:59;;;;;;;34.58;21.48;;;8.30;99.90;;;;;;5028881;28;20570;-69
2023/11/15 03:20:27;;;;;;;37.03;21.83;;;8.20;99.90;;;;;;5019736;28;20044;-73
2023/11/15 03:22:54;;;;;;;35.15;21.60;;;8.20;99.90;;;;;;5022065;28;20045;-72
2023/11/15 03:25:21;;;;;;;36.65;21.58;;;8.20;99.90;;;;;;5034344;28;20041;-73
2023/11/15 03:27:50;;;;;;;35.50;20.90;;;8.30;99.90;;;;;;5033407;28;20527;-70
2023/11/15 03:30:18;;;;;;;39.17;21.90;;;8.30;99.90;;;;;;5033747;28;20056;-70
2023/11/15 03:32:45;;;;;;;37.30;21.20;;;8.30;99.90;;;;;;5031024;28;20101;-71
2023/11/15 03:35:13;;;;;;;35.60;21.88;;;8.30;99.90;;;;;;5038429;28;20405;-68
2023/11/15 03:37:41;;;;;;;35.17;21.42;;;8.30;99.90;;;;;;5032909;28;20045;-69
2023/11/15 03:40:09;;;;;;;39.90;23.60;;;8.40;99.90;;;;;;5025516;28;20069;-68
2023/11/15 03:42:36;;;;;;;44.20;23.13;;;8.40;99.90;;;;;;5030682;28;20037;-71
2023/11/15 03:45:05;;;;;;;45.08;25.00;;;8.00;99.90;;;;;;5016355;28;20134;-68
2023/11/15 03:47:33;;;;;;;48.22;24.70;;;8.00;99.90;;;;;;5034958;28;20037;-72
2023/11/15 03:50:00;;;;;;;48.33;25.30;;;7.80;99.90;;;;;;5031160;28;20040;-70
2023/11/15 03:52:29;;;;;;;44.70;24.30;;;7.50;99.90;;;;;;5030707;28;20110;-69
2023/11/15 03:54:56;;;;;;;48.85;25.20;;;7.30;99.90;;;;;;5029952;28;20041;-69
2023/11/15 03:57:24;;;;;;;48.15;25.63;;;7.30;99.90;;;;;;5029726;28;20037;-70
2023/11/15 03:59:58;;;;;;;48.17;27.33;;;7.60;99.90;;;;;;5030959;28;20392;-72
2023/11/15 04:02:26;;;;;;;41.03;25.45;;;7.50;99.90;;;;;;5028874;28;20038;-70
2023/11/15 04:04:54;;;;;;;44.97;24.70;;;7.40;99.90;;;;;;5009058;28;20045;-71
2023/11/15 04:07:21;;;;;;;48.05;26.60;;;7.20;99.90;;;;;;5013440;28;20370;-72
2023/11/15 04:09:49;;;;;;;51.00;26.27;;;7.10;99.90;;;;;;5012721;28;20060;-71
2023/11/15 04:12:17;;;;;;;57.85;26.83;;;7.10;99.90;;;;;;5031056;28;20049;-71
2023/11/15 04:14:44;;;;;;;45.78;25.40;;;7.20;99.90;;;;;;5028793;28;20050;-73
2023/11/15 04:17:11;;;;;;;53.60;25.75;;;7.40;99.90;;;;;;5030997;28;20105;-71
2023/11/15 04:19:39;;;;;;;45.85;25.15;;;7.40;99.90;;;;;;5012876;28;20104;-72
2023/11/15 04:22:06;;;;;;;42.15;24.60;;;7.70;99.90;;;;;;5029448;28;20513;-71
2023/11/15 04:24:40;;;;;;;54.65;25.95;;;7.80;99.90;;;;;;5029136;28;20029;-71
2023/11/15 04:27:07;;;;;;;50.40;24.85;;;8.10;99.90;;;;;;5026307;28;20045;-71
2023/11/15 04:29:37;;;;;;;49.05;25.08;;;8.20;99.90;;;;;;5027684;28;20068;-70
2023/11/15 04:32:05;;;;;;;54.63;25.45;;;8.20;99.90;;;;;;5030302;28;20045;-70
2023/11/15 04:34:33;;;;;;;51.83;24.75;;;8.40;99.90;;;;;;5029266;28;20392;-71
2023/11/15 04:37:00;;;;;;;46.33;25.55;;;8.30;99.90;;;;;;5029203;28;20033;-71
2023/11/15 04:39:28;;;;;;;51.40;27.92;;;8.10;99.90;;;;;;5030305;28;20088;-71
2023/11/15 04:41:55;;;;;;;46.75;27.80;;;8.00;99.90;;;;;;5030221;28;20121;-72
2023/11/15 04:44:23;;;;;;;54.70;28.65;;;8.00;99.90;;;;;;5045739;28;20045;-70
2023/11/15 04:46:51;;;;;;;56.70;27.85;;;8.00;99.90;;;;;;5011173;28;20389;-73
2023/11/15 04:49:18;;;;;;;49.33;27.70;;;8.00;99.90;;;;;;5011983;28;20041;-70
2023/11/15 04:51:45;;;;;;;54.33;25.65;;;8.00;99.90;;;;;;5026251;28;20168;-73
2023/11/15 04:54:13;;;;;;;44.03;25.55;;;7.90;99.90;;;;;;5029661;28;20080;-72
2023/11/15 04:56:40;;;;;;;53.08;28.02;;;7.90;99.90;;;;;;5029851;28;20452;-71
2023/11/15 04:59:11;;;;;;;44.45;26.90;;;7.80;99.90;;;;;;5025844;28;20063;-70
2023/11/15 05:01:45;;;;;;;49.30;27.25;;;7.70;99.90;;;;;;5024245;28;20029;-71
2023/11/15 05:04:14;;;;;;;52.17;27.83;;;7.80;99.90;;;;;;5029587;28;20465;-72
2023/11/15 05:06:44;;;;;;;52.13;26.25;;;7.80;99.90;;;;;;5029990;28;20048;-71
2023/11/15 05:09:12;;;;;;;55.83;25.90;;;7.90;99.90;;;;;;5028337;28;20044;-71
2023/11/15 05:11:40;;;;;;;51.38;26.73;;;8.00;99.90;;;;;;5011834;28;20509;-72
2023/11/15 05:14:08;;;;;;;44.38;25.10;;;7.80;99.90;;;;;;5027159;28;20040;-73
2023/11/15 05:16:35;;;;;;;43.80;25.30;;;7.80;99.90;;;;;;5024512;28;20477;-71
2023/11/15 05:19:02;;;;;;;50.60;25.20;;;7.90;99.90;;;;;;5012534;28;20044;-70
2023/11/15 05:21:29;;;;;;;46.60;25.83;;;7.80;99.90;;;;;;5028969;28;20068;-72
2023/11/15 05:23:57;;;;;;;42.22;24.58;;;7.80;99.90;;;;;;5029911;28;20076;-72
2023/11/15 05:26:25;;;;;;;40.13;22.42;;;7.80;99.90;;;;;;5029181;28;20065;-74
2023/11/15 05:28:52;;;;;;;48.53;24.92;;;7.80;99.90;;;;;;5030055;28;20112;-72
2023/11/15 05:31:19;;;;;;;41.25;24.05;;;7.70;99.90;;;;;;5026424;28;20053;-72
2023/11/15 05:33:47;;;;;;;43.78;23.58;;;7.60;99.90;;;;;;5012249;28;20048;-72
2023/11/15 05:36:15;;;;;;;45.88;25.17;;;7.60;99.90;;;;;;5030758;28;20397;-72
2023/11/15 05:38:42;;;;;;;40.22;23.60;;;7.50;99.90;;;;;;5032048;28;20033;-72
2023/11/15 05:41:10;;;;;;;42.30;23.02;;;7.50;99.90;;;;;;5035734;28;20060;-71
2023/11/15 05:43:37;;;;;;;38.65;23.13;;;7.50;99.90;;;;;;5028915;28;20083;-70
2023/11/15 05:46:04;;;;;;;47.78;24.00;;;7.60;99.90;;;;;;5010972;28;20038;-72
2023/11/15 05:48:33;;;;;;;47.63;23.83;;;7.40;99.90;;;;;;5024578;28;20512;-72
2023/11/15 05:51:01;;;;;;;43.03;25.67;;;7.50;99.90;;;;;;5027772;28;21299;-70
2023/11/15 05:53:29;;;;;;;97.85;51.30;;;7.60;99.90;;;;;;5028847;28;20050;-70
2023/11/15 05:55:57;;;;;;;109.85;53.90;;;7.80;99.90;;;;;;5023403;28;20038;-70
2023/11/15 05:58:25;;;;;;;125.22;63.58;;;7.80;99.90;;;;;;5011723;28;20124;-72
2023/11/15 06:00:52;;;;;;;57.75;33.15;;;7.90;99.90;;;;;;5020550;28;20705;-69
2023/11/15 06:03:19;;;;;;;57.15;29.30;;;7.90;99.90;;;;;;5025777;28;20454;-70
2023/11/15 06:05:47;;;;;;;52.55;26.88;;;7.30;99.90;;;;;;5028846;28;20069;-71
2023/11/15 06:08:14;;;;;;;52.53;27.55;;;7.30;99.90;;;;;;5024125;28;20041;-70
2023/11/15 06:10:42;;;;;;;51.95;26.85;;;7.60;99.90;;;;;;5028968;28;20045;-72
2023/11/15 06:13:10;;;;;;;46.50;26.75;;;7.70;99.90;;;;;;5031813;28;20041;-70
2023/11/15 06:15:37;;;;;;;51.30;26.30;;;7.80;99.90;;;;;;5027426;28;20369;-73
2023/11/15 06:18:06;;;;;;;52.95;28.23;;;8.00;99.90;;;;;;5030995;28;20124;-70
2023/11/15 06:20:34;;;;;;;50.72;26.08;;;7.90;99.90;;;;;;5028423;28;20091;-72
2023/11/15 06:23:02;;;;;;;50.22;26.55;;;7.80;99.90;;;;;;5032059;28;20048;-70
2023/11/15 06:26:51;;;;;;;68.40;32.10;;;8.00;99.90;;;;;;5057578;28;20894;-67
2023/11/15 06:29:20;;;;;;;;;;;7.70;99.90;;;;;;5007415;28;20370;-68
2023/11/15 06:31:48;;;;;;;49.42;26.60;;;7.60;99.90;;;;;;5051866;28;19925;-68
2023/11/15 06:34:15;;;;;;;50.55;27.58;;;7.40;99.90;;;;;;5047689;28;20448;-70
2023/11/15 06:36:46;;;;;;;52.55;27.52;;;7.50;99.90;;;;;;5053209;28;20045;-70
2023/11/15 06:39:14;;;;;;;50.90;27.30;;;7.60;99.90;;;;;;5054756;28;20060;-71
2023/11/15 06:41:42;;;;;;;59.78;27.80;;;8.00;99.90;;;;;;5057376;28;20416;-71
2023/11/15 06:44:09;;;;;;;51.83;26.45;;;8.10;99.90;;;;;;5073856;28;20043;-71
2023/11/15 06:46:38;;;;;;;50.25;26.30;;;8.30;99.90;;;;;;5055000;28;20037;-70
2023/11/15 06:49:06;;;;;;;53.17;27.45;;;8.30;99.90;;;;;;5057014;28;20136;-69
2023/11/15 06:51:34;;;;;;;58.65;28.35;;;8.50;99.90;;;;;;5053084;28;20112;-72
2023/11/15 06:54:02;;;;;;;65.45;29.40;;;8.40;99.90;;;;;;5056064;28;20055;-71
2023/11/15 06:56:30;;;;;;;66.05;28.90;;;8.30;99.90;;;;;;5058291;28;20044;-69
2023/11/15 06:58:57;;;;;;;64.05;28.70;;;8.50;99.90;;;;;;5052747;28;20039;-69
2023/11/15 07:01:24;;;;;;;106.00;53.05;;;8.60;99.90;;;;;;5055586;28;20401;-69
2023/11/15 07:03:53;;;;;;;83.60;43.85;;;8.70;99.90;;;;;;5059025;28;20036;-69
2023/11/15 07:06:21;;;;;;;60.42;31.90;;;8.80;99.90;;;;;;5037926;28;20040;-69
2023/11/15 07:08:48;;;;;;;58.25;29.65;;;8.60;99.90;;;;;;5051628;28;20036;-71
2023/11/15 07:11:16;;;;;;;68.70;29.45;;;8.30;99.90;;;;;;5057241;28;20473;-71
2023/11/15 07:13:44;;;;;;;62.83;28.75;;;8.40;99.90;;;;;;5059937;28;20401;-71
2023/11/15 07:16:11;;;;;;;56.95;28.45;;;8.60;99.90;;;;;;5036287;28;20500;-71
2023/11/15 07:18:38;;;;;;;56.00;28.75;;;8.50;99.90;;;;;;5032143;28;20118;-72
2023/11/15 07:21:07;;;;;;;46.80;29.17;;;8.70;99.90;;;;;;5047860;28;20080;-69
2023/11/15 07:23:34;;;;;;;51.20;27.63;;;9.00;99.90;;;;;;5053785;28;20317;-71
2023/11/15 07:26:02;;;;;;;55.67;29.10;;;9.00;99.90;;;;;;5035121;28;20409;-70
2023/11/15 07:28:29;;;;;;;54.70;27.98;;;8.90;99.90;;;;;;5050369;28;20140;-71
2023/11/15 07:30:56;;;;;;;59.95;28.70;;;9.10;99.90;;;;;;5053282;28;20047;-72
2023/11/15 07:33:24;;;;;;;46.75;27.85;;;8.90;99.90;;;;;;5054628;28;20489;-69
2023/11/15 07:35:51;;;;;;;51.22;27.80;;;8.80;99.90;;;;;;5050716;28;20052;-70
2023/11/15 07:38:19;;;;;;;46.53;25.67;;;8.90;99.90;;;;;;5039535;28;20029;-73
2023/11/15 07:40:48;;;;;;;45.90;28.92;;;8.70;99.90;;;;;;5038194;28;20121;-69
2023/11/15 07:43:17;;;;;;;51.47;28.73;;;8.80;99.90;;;;;;5039220;28;20096;-70
2023/11/15 07:45:51;;;;;;;51.58;28.77;;;8.90;99.90;;;;;;5042051;28;20083;-71
2023/11/15 07:48:19;;;;;;;54.15;30.10;;;8.70;99.90;;;;;;5042556;28;20046;-71
2023/11/15 07:50:46;;;;;;;50.05;28.05;;;8.70;99.90;;;;;;5041827;28;20240;-70
2023/11/15 07:53:14;;;;;;;52.60;26.90;;;8.80;99.90;;;;;;5042930;28;20040;-71
2023/11/15 07:55:42;;;;;;;43.58;26.25;;;8.70;99.90;;;;;;5021299;28;20056;-71
2023/11/15 07:58:11;;;;;;;45.33;25.17;;;8.80;99.90;;;;;;5036070;28;20300;-70
2023/11/15 08:00:38;;;;;;;46.42;26.38;;;8.80;99.90;;;;;;5026040;28;20099;-72
2023/11/15 08:03:07;;;;;;;45.97;27.20;;;8.90;99.90;;;;;;5022237;28;20060;-70
2023/11/15 08:05:36;;;;;;;46.92;27.58;;;9.00;99.90;;;;;;5028261;28;20432;-69
2023/11/15 08:08:06;;;;;;;42.63;24.90;;;9.20;99.90;;;;;;5039177;28;20049;-71
2023/11/15 08:10:37;;;;;;;47.08;27.08;;;9.20;99.90;;;;;;5041578;28;20449;-69
2023/11/15 08:13:09;;;;;;;39.92;25.88;;;9.40;99.90;;;;;;5036403;28;20921;-68
2023/11/15 08:15:38;;;;;;;47.38;26.20;;;9.60;99.90;;;;;;5039558;28;20568;-70
2023/11/15 08:18:05;;;;;;;46.58;25.52;;;9.80;99.90;;;;;;5041665;28;20102;-71
2023/11/15 08:20:33;;;;;;;42.90;24.98;;;9.50;99.90;;;;;;5043634;28;20485;-70
2023/11/15 08:23:01;;;;;;;45.25;26.98;;;9.70;99.90;;;;;;5041757;28;20082;-72
2023/11/15 08:25:28;;;;;;;36.53;25.25;;;9.60;99.90;;;;;;5041085;28;20053;-70
2023/11/15 08:27:56;;;;;;;47.88;27.30;;;9.90;99.90;;;;;;5042746;28;20128;-71
2023/11/15 08:30:28;;;;;;;42.60;24.70;;;10.00;99.90;;;;;;5037960;28;20445;-71
2023/11/15 08:32:55;;;;;;;43.63;25.90;;;10.30;99.90;;;;;;5025619;28;20044;-71
2023/11/15 08:35:22;;;;;;;53.53;28.80;;;10.60;99.90;;;;;;5036878;28;20077;-70
2023/11/15 08:37:52;;;;;;;49.10;27.60;;;10.90;99.90;;;;;;5039767;28;20068;-71
2023/11/15 08:40:22;;;;;;;50.35;27.52;;;10.90;99.90;;;;;;5042533;28;20041;-71
2023/11/15 08:42:56;;;;;;;48.65;27.10;;;10.70;99.90;;;;;;5036988;28;20142;-70
2023/11/15 08:45:25;;;;;;;51.00;27.02;;;10.90;99.90;;;;;;5037260;28;20046;-70
2023/11/15 08:47:56;;;;;;;52.05;26.85;;;11.10;99.90;;;;;;5040688;28;20037;-69
2023/11/15 08:50:25;;;;;;;46.35;25.60;;;11.10;99.90;;;;;;5042506;28;20043;-70
2023/11/15 08:52:54;;;;;;;48.08;27.63;;;11.20;99.90;;;;;;5037640;28;20144;-70
2023/11/15 08:55:21;;;;;;;46.22;26.42;;;11.50;99.90;;;;;;5037779;28;20033;-70
2023/11/15 08:57:48;;;;;;;47.38;28.25;;;11.70;99.90;;;;;;5039077;28;20377;-70
2023/11/15 09:00:18;;;;;;;41.67;25.98;;;11.90;99.90;;;;;;5042762;28;20052;-70
2023/11/15 09:02:46;;;;;;;43.67;25.48;;;12.30;99.90;;;;;;5036150;28;20419;-69
2023/11/15 09:05:15;;;;;;;45.47;26.38;;;12.70;99.90;;;;;;5038833;28;20382;-70
2023/11/15 09:07:44;;;;;;;42.40;24.95;;;12.80;99.90;;;;;;5036712;28;20136;-71
2023/11/15 09:10:13;;;;;;;42.00;24.90;;;12.80;99.90;;;;;;5040287;28;20119;-70
2023/11/15 09:12:42;;;;;;;46.05;25.33;;;12.80;99.90;;;;;;5037380;28;20151;-70
2023/11/15 09:15:12;;;;;;;49.55;26.08;;;13.30;99.90;;;;;;5038140;28;20470;-71
2023/11/15 09:17:46;;;;;;;38.03;24.40;;;13.40;99.90;;;;;;5034785;28;20064;-70
2023/11/15 09:20:20;;;;;;;40.38;24.00;;;13.10;99.90;;;;;;5038234;28;20475;-71
2023/11/15 09:22:53;;;;;;;46.17;23.80;;;12.20;99.90;;;;;;5037459;28;20050;-71
2023/11/15 09:25:23;;;;;;;45.00;25.42;;;12.30;99.90;;;;;;5038764;28;20119;-71
2023/11/15 09:27:56;;;;;;;46.78;25.02;;;12.70;99.90;;;;;;5040045;28;20051;-71
2023/11/15 09:30:27;;;;;;;38.40;23.45;;;13.20;99.90;;;;;;5021289;28;20049;-71
2023/11/15 09:32:54;;;;;;;37.42;23.30;;;13.50;99.90;;;;;;5038175;28;20033;-71
2023/11/15 09:35:27;;;;;;;41.58;24.08;;;13.30;99.90;;;;;;5036464;28;20034;-71
2023/11/15 09:37:58;;;;;;;45.97;26.33;;;13.00;99.90;;;;;;5037134;28;20044;-70
2023/11/15 09:40:27;;;;;;;46.33;26.80;;;12.90;99.90;;;;;;5040798;28;20048;-71
2023/11/15 09:42:56;;;;;;;55.22;26.40;;;13.50;99.90;;;;;;5036203;28;20037;-71
2023/11/15 09:45:24;;;;;;;46.78;25.35;;;13.90;99.90;;;;;;5034775;28;20065;-71
2023/11/15 09:47:53;;;;;;;46.15;27.35;;;13.90;99.90;;;;;;5023781;28;20096;-73
2023/11/15 09:50:22;;;;;;;51.70;24.52;;;14.10;99.90;;;;;;5036865;28;20141;-72
2023/11/15 09:52:55;;;;;;;39.30;23.27;;;14.40;99.90;;;;;;5037705;28;20045;-70
2023/11/15 09:55:26;;;;;;;51.92;24.60;;;14.30;99.90;;;;;;5033303;28;20048;-71
2023/11/15 09:57:54;;;;;;;45.13;23.60;;;14.20;99.90;;;;;;5035779;28;20038;-70
2023/11/15 10:00:23;;;;;;;32.97;20.17;;;14.60;99.90;;;;;;5033509;28;20049;-72
2023/11/15 10:02:52;;;;;;;42.75;21.15;;;15.00;99.90;;;;;;5038288;28;20037;-72
2023/11/15 10:05:26;;;;;;;39.67;21.00;;;15.20;99.90;;;;;;5037919;28;20037;-71
2023/11/15 10:08:12;;;;;;;41.75;23.70;;;15.70;99.90;;;;;;5038621;28;20444;-71
2023/11/15 10:10:46;;;;;;;45.28;24.40;;;15.70;99.90;;;;;;5034110;28;20036;-71
2023/11/15 10:13:15;;;;;;;48.25;27.33;;;15.80;99.90;;;;;;5028350;28;20046;-69
2023/11/15 10:15:46;;;;;;;52.80;27.92;;;15.80;99.90;;;;;;5031810;28;20396;-71
2023/11/15 10:18:18;;;;;;;43.35;25.30;;;15.80;99.90;;;;;;5032788;28;20404;-72
2023/11/15 10:20:47;;;;;;;37.33;20.75;;;15.30;99.90;;;;;;5023738;28;20046;-69
2023/11/15 10:23:27;;;;;;;35.25;21.58;;;14.70;99.90;;;;;;5037799;28;20049;-70
2023/11/15 10:25:58;;;;;;;31.45;18.38;;;15.10;99.90;;;;;;5049449;28;20065;-71
2023/11/15 10:28:32;;;;;;;26.13;17.38;;;15.30;99.90;;;;;;5033822;28;20041;-69
2023/11/15 10:31:07;;;;;;;26.95;15.50;;;15.80;99.90;;;;;;5033399;28;20037;-72
2023/11/15 10:33:37;;;;;;;22.48;13.55;;;15.70;99.90;;;;;;5029928;28;20404;-69
2023/11/15 10:36:16;;;;;;;18.95;12.35;;;15.80;99.90;;;;;;5038596;28;20103;-70
2023/11/15 10:38:55;;;;;;;18.40;10.50;;;15.60;99.90;;;;;;5030092;28;20087;-68
2023/11/15 10:41:25;;;;;;;17.05;10.98;;;15.20;99.90;;;;;;5027822;28;20038;-68
2023/11/15 10:43:56;;;;;;;14.90;10.23;;;15.00;99.90;;;;;;5039925;28;20042;-71
2023/11/15 10:46:31;;;;;;;22.00;12.88;;;14.80;99.90;;;;;;5022284;28;20046;-70
2023/11/15 10:49:00;;;;;;;26.50;14.70;;;14.70;99.90;;;;;;5041130;28;20055;-68
2023/11/15 10:51:40;;;;;;;24.42;14.57;;;14.50;99.90;;;;;;5032557;28;20086;-70
2023/11/15 10:54:14;;;;;;;25.92;14.57;;;14.40;99.90;;;;;;5035162;28;20151;-71
2023/11/15 10:56:42;;;;;;;24.23;16.95;;;14.30;99.90;;;;;;5032726;28;20080;-70
2023/11/15 10:59:10;;;;;;;26.92;15.27;;;14.20;99.90;;;;;;5033546;28;20056;-71
2023/11/15 11:01:38;;;;;;;25.25;14.15;;;14.00;99.90;;;;;;5036692;28;20033;-69
2023/11/15 11:04:10;;;;;;;19.92;11.70;;;13.90;99.90;;;;;;5034347;28;20044;-68
2023/11/15 11:07:04;;;;;;;18.02;11.20;;;14.20;99.90;;;;;;5038561;28;20045;-70
2023/11/15 11:09:55;;;;;;;14.68;9.73;;;14.00;99.90;;;;;;5035524;28;20045;-70
2023/11/15 11:12:22;;;;;;;;;;;14.20;99.90;;;;;;5035908;28;20111;-70
2023/11/15 11:15:19;;;;;;;16.65;9.85;;;14.30;99.90;;;;;;5029051;28;20025;-68
2023/11/15 11:17:47;;;;;;;21.17;10.65;;;14.20;99.90;;;;;;5034886;28;20061;-71
2023/11/15 11:20:28;;;;;;;17.38;11.85;;;14.20;99.90;;;;;;5039052;28;20466;-74
2023/11/15 11:23:17;;;;;;;14.38;9.13;;;14.10;99.90;;;;;;5034519;28;20432;-72
2023/11/15 11:25:48;;;;;;;16.42;9.75;;;14.10;99.90;;;;;;5035597;28;20403;-74
2023/11/15 11:28:16;;;;;;;16.50;9.63;;;14.10;99.90;;;;;;5038534;28;20064;-73
2023/11/15 11:30:44;;;;;;;18.90;11.73;;;14.10;99.90;;;;;;5033532;28;20037;-72
2023/11/15 11:33:18;;;;;;;13.95;8.98;;;14.10;99.90;;;;;;5043407;28;20041;-72
2023/11/15 11:35:47;;;;;;;14.10;9.63;;;14.10;99.90;;;;;;5038668;28;20044;-75
2023/11/15 11:38:44;;;;;;;13.65;8.38;;;14.20;99.90;;;;;;5041391;28;20119;-70
2023/11/15 11:41:13;;;;;;;15.20;8.95;;;14.30;99.90;;;;;;5036450;28;20123;-74
2023/11/15 11:43:41;;;;;;;16.13;9.68;;;14.20;99.90;;;;;;5037327;28;20053;-72
2023/11/15 11:46:15;;;;;;;18.08;9.70;;;14.20;99.90;;;;;;5024285;28;20045;-75
2023/11/15 11:48:43;;;;;;;13.20;8.75;;;14.30;99.90;;;;;;5039143;28;20033;-73
2023/11/15 11:51:11;;;;;;;14.15;8.52;;;14.40;99.90;;;;;;5045000;28;20399;-75
2023/11/15 11:53:39;;;;;;;12.07;8.57;;;14.40;99.90;;;;;;5045503;28;20045;-71
2023/11/15 11:56:08;;;;;;;13.60;7.88;;;14.30;99.90;;;;;;5036851;28;20042;-73
2023/11/15 11:58:38;;;;;;;11.63;7.97;;;14.40;99.90;;;;;;5041148;28;20042;-73
2023/11/15 12:01:07;;;;;;;11.23;7.80;;;14.30;99.90;;;;;;5040726;28;20092;-73
2023/11/15 12:03:38;;;;;;;15.07;8.23;;;14.20;99.90;;;;;;5036369;28;20472;-72
2023/11/15 12:06:08;;;;;;;11.68;7.80;;;14.10;99.90;;;;;;5042936;28;20128;-70
2023/11/15 12:08:39;;;;;;;12.02;7.85;;;14.10;99.90;;;;;;5040848;28;20046;-70
2023/11/15 12:11:08;;;;;;;12.57;8.25;;;14.00;99.90;;;;;;5040453;28;20029;-71
2023/11/15 12:13:50;;;;;;;13.73;8.65;;;14.00;99.90;;;;;;5040256;28;20076;-71
2023/11/15 12:16:19;;;;;;;13.30;7.72;;;13.90;99.90;;;;;;5036180;28;20034;-71
2023/11/15 12:19:01;;;;;;;12.82;7.43;;;13.90;99.90;;;;;;5031511;28;20037;-73
2023/11/15 12:21:35;;;;;;;11.65;7.78;;;13.90;99.90;;;;;;5037133;28;20042;-69
2023/11/15 12:24:06;;;;;;;11.13;7.53;;;13.80;99.90;;;;;;5038543;28;20507;-71
2023/11/15 12:26:40;;;;;;;17.10;9.82;;;13.80;99.90;;;;;;5041321;28;20135;-69
2023/11/15 12:29:26;;;;;;;24.73;12.13;;;13.70;99.90;;;;;;5038790;28;20045;-70
2023/11/15 12:31:56;;;;;;;22.08;13.27;;;13.70;99.90;;;;;;5032703;28;20453;-70
2023/11/15 12:34:24;;;;;;;28.65;16.80;;;13.60;99.90;;;;;;5039392;28;20048;-70
2023/11/15 12:36:52;;;;;;;33.90;17.90;;;13.70;99.90;;;;;;5038227;28;20432;-70
2023/11/15 12:39:23;;;;;;;35.83;20.70;;;13.40;99.90;;;;;;5033954;28;20032;-70
2023/11/15 12:41:52;;;;;;;;;;;13.30;99.90;;;;;;5035594;28;20048;-69
2023/11/15 12:44:20;;;;;;;42.40;23.25;;;13.20;99.90;;;;;;5029743;28;20319;-71
2023/11/15 12:46:55;;;;;;;35.47;20.85;;;13.20;99.90;;;;;;5025405;28;20500;-73
2023/11/15 12:49:23;;;;;;;32.50;18.88;;;13.20;99.90;;;;;;5037491;28;20049;-71